sensor_id;sensor_type;location;lat;lon;timestamp;pressure;altitude;pressure_sealevel;temperature;humidity
14295;BME280;7231;59.370;18.016;2024-02-21T00:00:19;100841.09;;;0.03;100.00
14295;BME280;7231;59.370;18.016;2024-02-21T00:02:48;100821.34;;;-0.10;100.00
14295;BME280;7231;59.370;18.016;2024-02-21T00:05:16;100848.94;;;0.05;100.00
14295;BME280;7231;59.370;18.016;2024-02-21T00:07:44;100827.03;;;-0.02;100.00
14295;BME280;7231;59.370;18.016;2024-02-21T00:10:12;100831.78;;;0.05;100.00
14295;BME280;7231;59.370;18.016;2024-02-21T00:12:40;100841.78;;;0.00;100.00
14295;BME280;7231;59.370;18.016;2024-02-21T00:15:11;100815.50;;;-0.07;100.00
14295;BME280;7231;59.370;18.016;2024-02-21T00:17:39;100823.25;;;-0.07;100.00
14295;BME280;7231;59.370;18.016;2024-02-21T00:20:08;100820.09;;;-0.03;100.00
14295;BME280;7231;59.370;18.016;2024-02-21T00:22:36;100821.09;;;-0.01;100.00
14295;BME280;7231;59.370;18.016;2024-02-21T00:25:05;100816.13;;;0.02;100.00
14295;BME280;7231;59.370;18.016;2024-02-21T00:27:33;100798.88;;;0.01;100.00
14295;BME280;7231;59.370;18.016;2024-02-21T00:30:01;100799.28;;;0.07;100.00
14295;BME280;7231;59.370;18.016;2024-02-21T00:32:31;100801.19;;;0.10;100.00
14295;BME280;7231;59.370;18.016;2024-02-21T00:35:00;100795.13;;;0.09;100.00
14295;BME280;7231;59.370;18.016;2024-02-21T00:37:29;100801.88;;;0.07;100.00
14295;BME280;7231;59.370;18.016;2024-02-21T00:39:57;100782.44;;;-0.01;100.00
14295;BME280;7231;59.370;18.016;2024-02-21T00:42:25;100796.50;;;0.04;100.00
14295;BME280;7231;59.370;18.016;2024-02-21T00:44:53;100791.22;;;0.03;100.00
14295;BME280;7231;59.370;18.016;2024-02-21T00:47:21;100783.31;;;-0.01;100.00
14295;BME280;7231;59.370;18.016;2024-02-21T00:49:51;100755.13;;;-0.11;100.00
14295;BME280;7231;59.370;18.016;2024-02-21T00:52:20;100783.13;;;0.10;100.00
14295;BME280;7231;59.370;18.016;2024-02-21T00:54:48;100766.78;;;0.09;100.00
14295;BME280;7231;59.370;18.016;2024-02-21T00:57:20;100767.97;;;0.14;100.00
14295;BME280;7231;59.370;18.016;2024-02-21T00:59:49;100761.03;;;0.13;100.00
14295;BME280;7231;59.370;18.016;2024-02-21T01:02:17;100751.72;;;0.15;100.00
14295;BME280;7231;59.370;18.016;2024-02-21T01:04:45;100749.34;;;0.18;100.00
14295;BME280;7231;59.370;18.016;2024-02-21T01:07:17;100737.47;;;0.20;100.00
14295;BME280;7231;59.370;18.016;2024-02-21T01:09:45;100741.03;;;0.22;100.00
14295;BME280;7231;59.370;18.016;2024-02-21T01:12:13;100739.44;;;0.24;100.00
14295;BME280;7231;59.370;18.016;2024-02-21T01:14:41;100711.06;;;0.11;100.00
14295;BME280;7231;59.370;18.016;2024-02-21T01:17:09;100741.25;;;0.25;100.00
14295;BME280;7231;59.370;18.016;2024-02-21T01:19:38;100731.59;;;0.23;100.00
14295;BME280;7231;59.370;18.016;2024-02-21T01:22:06;100714.47;;;0.23;100.00
14295;BME280;7231;59.370;18.016;2024-02-21T01:24:36;100700.38;;;0.18;100.00
14295;BME280;7231;59.370;18.016;2024-02-21T01:27:04;100696.59;;;0.26;100.00
14295;BME280;7231;59.370;18.016;2024-02-21T01:29:32;100694.13;;;0.28;100.00
14295;BME280;7231;59.370;18.016;2024-02-21T01:32:00;100690.75;;;0.29;100.00
14295;BME280;7231;59.370;18.016;2024-02-21T01:34:29;100693.25;;;0.27;100.00
14295;BME280;7231;59.370;18.016;2024-02-21T01:36:58;100682.94;;;0.27;100.00
14295;BME280;7231;59.370;18.016;2024-02-21T01:39:32;100676.88;;;0.27;100.00
14295;BME280;7231;59.370;18.016;2024-02-21T01:42:02;100678.75;;;0.29;100.00
14295;BME280;7231;59.370;18.016;2024-02-21T01:44:31;100674.59;;;0.31;100.00
14295;BME280;7231;59.370;18.016;2024-02-21T01:46:59;100671.22;;;0.32;100.00
14295;BME280;7231;59.370;18.016;2024-02-21T01:49:28;100666.16;;;0.34;100.00
14295;BME280;7231;59.370;18.016;2024-02-21T01:51:56;100641.28;;;0.21;100.00
14295;BME280;7231;59.370;18.016;2024-02-21T01:54:25;100656.16;;;0.39;100.00
14295;BME280;7231;59.370;18.016;2024-02-21T01:56:55;100657.16;;;0.41;100.00
14295;BME280;7231;59.370;18.016;2024-02-21T01:59:25;100652.00;;;0.41;100.00
14295;BME280;7231;59.370;18.016;2024-02-21T02:01:55;100645.16;;;0.41;100.00
14295;BME280;7231;59.370;18.016;2024-02-21T02:04:24;100639.09;;;0.41;100.00
14295;BME280;7231;59.370;18.016;2024-02-21T02:06:54;100631.56;;;0.44;100.00
14295;BME280;7231;59.370;18.016;2024-02-21T02:09:22;100633.34;;;0.45;100.00
14295;BME280;7231;59.370;18.016;2024-02-21T02:11:51;100623.81;;;0.44;100.00
14295;BME280;7231;59.370;18.016;2024-02-21T02:14:19;100572.16;;;0.16;100.00
14295;BME280;7231;59.370;18.016;2024-02-21T02:16:48;100607.84;;;0.49;100.00
14295;BME280;7231;59.370;18.016;2024-02-21T02:19:17;100596.72;;;0.50;100.00
14295;BME280;7231;59.370;18.016;2024-02-21T02:21:46;100594.34;;;0.53;100.00
14295;BME280;7231;59.370;18.016;2024-02-21T02:24:22;100585.44;;;0.48;100.00
14295;BME280;7231;59.370;18.016;2024-02-21T02:26:51;100598.81;;;0.56;100.00
14295;BME280;7231;59.370;18.016;2024-02-21T02:29:20;100598.91;;;0.57;100.00
14295;BME280;7231;59.370;18.016;2024-02-21T02:31:49;100580.16;;;0.47;100.00
14295;BME280;7231;59.370;18.016;2024-02-21T02:34:17;100598.31;;;0.61;100.00
14295;BME280;7231;59.370;18.016;2024-02-21T02:36:46;100590.66;;;0.63;100.00
14295;BME280;7231;59.370;18.016;2024-02-21T02:39:16;100573.72;;;0.53;100.00
14295;BME280;7231;59.370;18.016;2024-02-21T02:41:45;100587.09;;;0.61;100.00
14295;BME280;7231;59.370;18.016;2024-02-21T02:44:13;100594.22;;;0.65;100.00
14295;BME280;7231;59.370;18.016;2024-02-21T02:46:42;100591.75;;;0.67;100.00
14295;BME280;7231;59.370;18.016;2024-02-21T02:49:10;100596.91;;;0.67;100.00
14295;BME280;7231;59.370;18.016;2024-02-21T02:51:41;100596.22;;;0.69;100.00
14295;BME280;7231;59.370;18.016;2024-02-21T02:54:09;100589.38;;;0.70;100.00
14295;BME280;7231;59.370;18.016;2024-02-21T02:56:38;100564.47;;;0.57;100.00
14295;BME280;7231;59.370;18.016;2024-02-21T02:59:07;100572.81;;;0.66;100.00
14295;BME280;7231;59.370;18.016;2024-02-21T03:01:35;100583.13;;;0.66;100.00
14295;BME280;7231;59.370;18.016;2024-02-21T03:04:05;100589.66;;;0.74;100.00
14295;BME280;7231;59.370;18.016;2024-02-21T03:06:33;100575.97;;;0.75;100.00
14295;BME280;7231;59.370;18.016;2024-02-21T03:09:01;100565.81;;;0.78;100.00
14295;BME280;7231;59.370;18.016;2024-02-21T03:11:35;100583.09;;;0.79;100.00
14295;BME280;7231;59.370;18.016;2024-02-21T03:14:09;100560.75;;;0.80;100.00
14295;BME280;7231;59.370;18.016;2024-02-21T03:16:37;100553.91;;;0.80;100.00
14295;BME280;7231;59.370;18.016;2024-02-21T03:19:05;100553.13;;;0.81;100.00
14295;BME280;7231;59.370;18.016;2024-02-21T03:21:33;100550.53;;;0.81;100.00
14295;BME280;7231;59.370;18.016;2024-02-21T03:24:02;100461.56;;;0.33;100.00
14295;BME280;7231;59.370;18.016;2024-02-21T03:26:30;100529.69;;;0.78;100.00
14295;BME280;7231;59.370;18.016;2024-02-21T03:28:58;100533.81;;;0.89;100.00
14295;BME280;7231;59.370;18.016;2024-02-21T03:31:28;100530.63;;;0.93;100.00
14295;BME280;7231;59.370;18.016;2024-02-21T03:33:58;100523.50;;;0.89;100.00
14295;BME280;7231;59.370;18.016;2024-02-21T03:36:26;100530.03;;;0.97;100.00
14295;BME280;7231;59.370;18.016;2024-02-21T03:38:55;100498.03;;;0.81;100.00
14295;BME280;7231;59.370;18.016;2024-02-21T03:41:23;100510.16;;;0.96;100.00
14295;BME280;7231;59.370;18.016;2024-02-21T03:43:51;100511.34;;;1.02;100.00
14295;BME280;7231;59.370;18.016;2024-02-21T03:46:18;100512.22;;;1.02;100.00
14295;BME280;7231;59.370;18.016;2024-02-21T03:48:51;100483.09;;;0.90;100.00
14295;BME280;7231;59.370;18.016;2024-02-21T03:51:19;100506.47;;;1.06;100.00
14295;BME280;7231;59.370;18.016;2024-02-21T03:53:47;100485.97;;;0.94;100.00
14295;BME280;7231;59.370;18.016;2024-02-21T03:56:15;100480.88;;;0.96;100.00
14295;BME280;7231;59.370;18.016;2024-02-21T03:58:43;100495.31;;;1.07;100.00
14295;BME280;7231;59.370;18.016;2024-02-21T04:01:11;100500.78;;;1.12;100.00
14295;BME280;7231;59.370;18.016;2024-02-21T04:03:40;100502.72;;;1.16;100.00
14295;BME280;7231;59.370;18.016;2024-02-21T04:06:10;100479.31;;;1.13;100.00
14295;BME280;7231;59.370;18.016;2024-02-21T04:08:39;100450.34;;;0.89;100.00
14295;BME280;7231;59.370;18.016;2024-02-21T04:11:07;100475.50;;;1.21;100.00
14295;BME280;7231;59.370;18.016;2024-02-21T04:13:35;100472.13;;;1.22;100.00
14295;BME280;7231;59.370;18.016;2024-02-21T04:16:04;100469.53;;;1.22;100.00
14295;BME280;7231;59.370;18.016;2024-02-21T04:18:32;100469.72;;;1.25;100.00
14295;BME280;7231;59.370;18.016;2024-02-21T04:21:00;100449.41;;;1.16;100.00
14295;BME280;7231;59.370;18.016;2024-02-21T04:23:30;100462.13;;;1.28;100.00
14295;BME280;7231;59.370;18.016;2024-02-21T04:25:58;100456.28;;;1.30;100.00
14295;BME280;7231;59.370;18.016;2024-02-21T04:28:26;100423.50;;;1.15;100.00
14295;BME280;7231;59.370;18.016;2024-02-21T04:30:55;100445.13;;;1.32;100.00
14295;BME280;7231;59.370;18.016;2024-02-21T04:33:23;100449.69;;;1.36;100.00
14295;BME280;7231;59.370;18.016;2024-02-21T04:35:52;100451.63;;;1.40;100.00
14295;BME280;7231;59.370;18.016;2024-02-21T04:38:21;100442.28;;;1.42;100.00
14295;BME280;7231;59.370;18.016;2024-02-21T04:40:51;100444.16;;;1.44;100.00
14295;BME280;7231;59.370;18.016;2024-02-21T04:43:19;100439.97;;;1.46;100.00
14295;BME280;7231;59.370;18.016;2024-02-21T04:45:48;100409.78;;;1.30;100.00
14295;BME280;7231;59.370;18.016;2024-02-21T04:48:16;100432.47;;;1.51;100.00
14295;BME280;7231;59.370;18.016;2024-02-21T04:50:44;100434.34;;;1.53;100.00
14295;BME280;7231;59.370;18.016;2024-02-21T04:53:12;100404.25;;;1.39;100.00
14295;BME280;7231;59.370;18.016;2024-02-21T04:55:40;100429.34;;;1.56;100.00
14295;BME280;7231;59.370;18.016;2024-02-21T04:58:10;100401.38;;;1.49;100.00
14295;BME280;7231;59.370;18.016;2024-02-21T05:00:39;100422.66;;;1.60;100.00
14295;BME280;7231;59.370;18.016;2024-02-21T05:03:07;100420.16;;;1.61;100.00
14295;BME280;7231;59.370;18.016;2024-02-21T05:05:35;100419.38;;;1.62;100.00
14295;BME280;7231;59.370;18.016;2024-02-21T05:08:04;100401.81;;;1.57;100.00
14295;BME280;7231;59.370;18.016;2024-02-21T05:10:32;100371.81;;;1.44;100.00
14295;BME280;7231;59.370;18.016;2024-02-21T05:13:00;100386.16;;;1.54;100.00
14295;BME280;7231;59.370;18.016;2024-02-21T05:15:30;100402.50;;;1.69;100.00
14295;BME280;7231;59.370;18.016;2024-02-21T05:17:59;100398.31;;;1.71;100.00
14295;BME280;7231;59.370;18.016;2024-02-21T05:20:28;100400.09;;;1.72;100.00
14295;BME280;7231;59.370;18.016;2024-02-21T05:22:56;100382.47;;;1.65;100.00
14295;BME280;7231;59.370;18.016;2024-02-21T05:25:25;100380.88;;;1.67;100.00
14295;BME280;7231;59.370;18.016;2024-02-21T05:27:53;100389.13;;;1.76;100.00
14295;BME280;7231;59.370;18.016;2024-02-21T05:30:22;100381.53;;;1.79;100.00
14295;BME280;7231;59.370;18.016;2024-02-21T05:32:52;100385.91;;;1.80;100.00
14295;BME280;7231;59.370;18.016;2024-02-21T05:35:25;100368.78;;;1.82;100.00
14295;BME280;7231;59.370;18.016;2024-02-21T05:37:53;100359.81;;;1.76;100.00
14295;BME280;7231;59.370;18.016;2024-02-21T05:40:21;100359.25;;;1.81;100.00
14295;BME280;7231;59.370;18.016;2024-02-21T05:42:50;100362.09;;;1.86;100.00
14295;BME280;7231;59.370;18.016;2024-02-21T05:45:19;100361.38;;;1.88;100.00
14295;BME280;7231;59.370;18.016;2024-02-21T05:47:47;100349.09;;;1.84;100.00
14295;BME280;7231;59.370;18.016;2024-02-21T05:50:17;100350.31;;;1.91;100.00
14295;BME280;7231;59.370;18.016;2024-02-21T05:52:46;100349.41;;;1.90;100.00
14295;BME280;7231;59.370;18.016;2024-02-21T05:55:14;100344.41;;;1.93;100.00
14295;BME280;7231;59.370;18.016;2024-02-21T05:57:42;100335.69;;;1.91;100.00
14295;BME280;7231;59.370;18.016;2024-02-21T06:00:11;100337.72;;;1.97;100.00
14295;BME280;7231;59.370;18.016;2024-02-21T06:02:40;100335.22;;;1.99;100.00
14295;BME280;7231;59.370;18.016;2024-02-21T06:05:08;100323.19;;;1.99;100.00
14295;BME280;7231;59.370;18.016;2024-02-21T06:07:38;100307.16;;;1.90;100.00
14295;BME280;7231;59.370;18.016;2024-02-21T06:10:07;100331.81;;;2.00;100.00
14295;BME280;7231;59.370;18.016;2024-02-21T06:12:35;100316.94;;;1.95;100.00
14295;BME280;7231;59.370;18.016;2024-02-21T06:15:05;100332.88;;;2.03;100.00
14295;BME280;7231;59.370;18.016;2024-02-21T06:17:33;100325.28;;;2.06;100.00
14295;BME280;7231;59.370;18.016;2024-02-21T06:20:01;100328.84;;;2.08;100.00
14295;BME280;7231;59.370;18.016;2024-02-21T06:22:30;100329.72;;;2.09;100.00
14295;BME280;7231;59.370;18.016;2024-02-21T06:25:00;100324.63;;;2.10;100.00
14295;BME280;7231;59.370;18.016;2024-02-21T06:27:28;100323.81;;;2.11;100.00
14295;BME280;7231;59.370;18.016;2024-02-21T06:29:57;100317.53;;;2.06;100.00
14295;BME280;7231;59.370;18.016;2024-02-21T06:32:25;100318.50;;;2.08;100.00
14295;BME280;7231;59.370;18.016;2024-02-21T06:34:53;100299.00;;;1.99;100.00
14295;BME280;7231;59.370;18.016;2024-02-21T06:37:21;100317.03;;;2.13;100.00
14295;BME280;7231;59.370;18.016;2024-02-21T06:39:50;100315.59;;;2.18;100.00
14295;BME280;7231;59.370;18.016;2024-02-21T06:42:19;100302.34;;;2.12;100.00
14295;BME280;7231;59.370;18.016;2024-02-21T06:44:48;100315.81;;;2.23;100.00
14295;BME280;7231;59.370;18.016;2024-02-21T06:47:16;100292.88;;;2.13;100.00
14295;BME280;7231;59.370;18.016;2024-02-21T06:49:48;100311.63;;;2.25;100.00
14295;BME280;7231;59.370;18.016;2024-02-21T06:52:17;100288.91;;;2.19;100.00
14295;BME280;7231;59.370;18.016;2024-02-21T06:54:47;100299.56;;;2.25;100.00
14295;BME280;7231;59.370;18.016;2024-02-21T06:57:15;100277.28;;;2.11;100.00
14295;BME280;7231;59.370;18.016;2024-02-21T06:59:45;100256.19;;;2.04;100.00
14295;BME280;7231;59.370;18.016;2024-02-21T07:02:13;100288.59;;;2.30;100.00
14295;BME280;7231;59.370;18.016;2024-02-21T07:04:41;100286.88;;;2.30;100.00
14295;BME280;7231;59.370;18.016;2024-02-21T07:07:10;100283.50;;;2.31;100.00
14295;BME280;7231;59.370;18.016;2024-02-21T07:09:39;100271.44;;;2.32;100.00
14295;BME280;7231;59.370;18.016;2024-02-21T07:12:09;100252.06;;;2.23;100.00
14295;BME280;7231;59.370;18.016;2024-02-21T07:14:37;100269.97;;;2.37;100.00
14295;BME280;7231;59.370;18.016;2024-02-21T07:17:07;100269.25;;;2.39;100.00
14295;BME280;7231;59.370;18.016;2024-02-21T07:19:35;100257.28;;;2.41;100.00
14295;BME280;7231;59.370;18.016;2024-02-21T07:22:04;100244.94;;;2.36;100.00
14295;BME280;7231;59.370;18.016;2024-02-21T07:24:32;100252.19;;;2.43;100.00
14295;BME280;7231;59.370;18.016;2024-02-21T07:27:00;100256.56;;;2.44;100.00
14295;BME280;7231;59.370;18.016;2024-02-21T07:29:31;100244.56;;;2.46;100.00
14295;BME280;7231;59.370;18.016;2024-02-21T07:31:59;100242.00;;;2.46;100.00
14295;BME280;7231;59.370;18.016;2024-02-21T07:34:29;100238.44;;;2.44;100.00
14295;BME280;7231;59.370;18.016;2024-02-21T07:36:58;100228.66;;;2.38;100.00
14295;BME280;7231;59.370;18.016;2024-02-21T07:39:26;100241.25;;;2.48;100.00
14295;BME280;7231;59.370;18.016;2024-02-21T07:41:54;100240.44;;;2.49;100.00
14295;BME280;7231;59.370;18.016;2024-02-21T07:44:22;100247.47;;;2.52;100.00
14295;BME280;7231;59.370;18.016;2024-02-21T07:46:50;100226.81;;;2.36;100.00
14295;BME280;7231;59.370;18.016;2024-02-21T07:49:18;100215.72;;;2.38;100.00
14295;BME280;7231;59.370;18.016;2024-02-21T07:51:48;100246.00;;;2.57;100.00
14295;BME280;7231;59.370;18.016;2024-02-21T07:54:16;100245.28;;;2.59;100.00
14295;BME280;7231;59.370;18.016;2024-02-21T07:56:47;100239.06;;;2.56;100.00
14295;BME280;7231;59.370;18.016;2024-02-21T07:59:15;100243.69;;;2.63;100.00
14295;BME280;7231;59.370;18.016;2024-02-21T08:01:43;100239.47;;;2.65;100.00
14295;BME280;7231;59.370;18.016;2024-02-21T08:04:12;100242.97;;;2.66;100.00
14295;BME280;7231;59.370;18.016;2024-02-21T08:06:41;100237.84;;;2.67;100.00
14295;BME280;7231;59.370;18.016;2024-02-21T08:09:11;100242.38;;;2.71;100.00
14295;BME280;7231;59.370;18.016;2024-02-21T08:11:39;100232.53;;;2.64;100.00
14295;BME280;7231;59.370;18.016;2024-02-21T08:14:08;100242.53;;;2.74;100.00
14295;BME280;7231;59.370;18.016;2024-02-21T08:16:36;100240.91;;;2.76;100.00
14295;BME280;7231;59.370;18.016;2024-02-21T08:19:04;100234.75;;;2.74;100.00
14295;BME280;7231;59.370;18.016;2024-02-21T08:21:32;100235.13;;;2.82;100.00
14295;BME280;7231;59.370;18.016;2024-02-21T08:24:01;100226.19;;;2.75;100.00
14295;BME280;7231;59.370;18.016;2024-02-21T08:26:30;100198.88;;;2.64;100.00
14295;BME280;7231;59.370;18.016;2024-02-21T08:28:59;100240.38;;;2.83;100.00
14295;BME280;7231;59.370;18.016;2024-02-21T08:31:28;100245.88;;;2.89;100.00
14295;BME280;7231;59.370;18.016;2024-02-21T08:33:58;100241.66;;;2.91;100.00
14295;BME280;7231;59.370;18.016;2024-02-21T08:36:29;100246.00;;;2.92;100.00
14295;BME280;7231;59.370;18.016;2024-02-21T08:38:59;100241.88;;;2.96;100.00
14295;BME280;7231;59.370;18.016;2024-02-21T08:41:32;100241.94;;;2.98;100.00
14295;BME280;7231;59.370;18.016;2024-02-21T08:44:22;100233.22;;;2.96;100.00
14295;BME280;7231;59.370;18.016;2024-02-21T08:46:50;100236.25;;;3.05;100.00
14295;BME280;7231;59.370;18.016;2024-02-21T08:49:18;100232.84;;;3.06;100.00
14295;BME280;7231;59.370;18.016;2024-02-21T08:51:47;100236.47;;;3.09;100.00
14295;BME280;7231;59.370;18.016;2024-02-21T08:54:15;100228.63;;;3.08;100.00
14295;BME280;7231;59.370;18.016;2024-02-21T08:56:45;100223.53;;;3.09;100.00
14295;BME280;7231;59.370;18.016;2024-02-21T08:59:13;100221.06;;;3.12;100.00
14295;BME280;7231;59.370;18.016;2024-02-21T09:01:42;100192.06;;;3.02;100.00
14295;BME280;7231;59.370;18.016;2024-02-21T09:04:10;100220.63;;;3.21;100.00
14295;BME280;7231;59.370;18.016;2024-02-21T09:06:38;100207.66;;;3.21;100.00
14295;BME280;7231;59.370;18.016;2024-02-21T09:09:09;100214.84;;;3.26;100.00
14295;BME280;7231;59.370;18.016;2024-02-21T09:11:37;100210.09;;;3.36;100.00
14295;BME280;7231;59.370;18.016;2024-02-21T09:14:08;100207.72;;;3.40;100.00
14295;BME280;7231;59.370;18.016;2024-02-21T09:16:36;100177.00;;;3.30;100.00
14295;BME280;7231;59.370;18.016;2024-02-21T09:19:04;100207.19;;;3.47;100.00
14295;BME280;7231;59.370;18.016;2024-02-21T09:21:32;100185.41;;;3.44;100.00
14295;BME280;7231;59.370;18.016;2024-02-21T09:24:01;100198.03;;;3.55;100.00
14295;BME280;7231;59.370;18.016;2024-02-21T09:26:30;100191.38;;;3.61;100.00
14295;BME280;7231;59.370;18.016;2024-02-21T09:28:58;100186.25;;;3.62;100.00
14295;BME280;7231;59.370;18.016;2024-02-21T09:31:28;100166.19;;;3.58;100.00
14295;BME280;7231;59.370;18.016;2024-02-21T09:33:56;100184.13;;;3.73;100.00
14295;BME280;7231;59.370;18.016;2024-02-21T09:36:24;100178.13;;;3.74;100.00
14295;BME280;7231;59.370;18.016;2024-02-21T09:38:52;100178.13;;;3.74;100.00
14295;BME280;7231;59.370;18.016;2024-02-21T09:41:25;100142.94;;;3.59;100.00
14295;BME280;7231;59.370;18.016;2024-02-21T09:43:54;100167.16;;;3.79;100.00
14295;BME280;7231;59.370;18.016;2024-02-21T09:46:30;100167.16;;;3.79;100.00
14295;BME280;7231;59.370;18.016;2024-02-21T09:49:12;100164.63;;;3.81;100.00
14295;BME280;7231;59.370;18.016;2024-02-21T09:51:43;100154.19;;;3.79;100.00
14295;BME280;7231;59.370;18.016;2024-02-21T09:54:13;100165.72;;;3.86;100.00
14295;BME280;7231;59.370;18.016;2024-02-21T09:56:45;100111.00;;;3.61;100.00
14295;BME280;7231;59.370;18.016;2024-02-21T09:59:14;100166.81;;;3.91;100.00
14295;BME280;7231;59.370;18.016;2024-02-21T10:01:44;100159.97;;;3.93;100.00
14295;BME280;7231;59.370;18.016;2024-02-21T10:04:14;100135.28;;;3.82;100.00
14295;BME280;7231;59.370;18.016;2024-02-21T10:06:43;100160.25;;;3.99;100.00
14295;BME280;7231;59.370;18.016;2024-02-21T10:09:20;100157.78;;;4.02;100.00
14295;BME280;7231;59.370;18.016;2024-02-21T10:11:50;100161.31;;;4.04;100.00
14295;BME280;7231;59.370;18.016;2024-02-21T10:14:18;100157.09;;;4.06;100.00
14295;BME280;7231;59.370;18.016;2024-02-21T10:16:56;100150.25;;;4.08;100.00
14295;BME280;7231;59.370;18.016;2024-02-21T10:19:24;100140.16;;;4.14;100.00
14295;BME280;7231;59.370;18.016;2024-02-21T10:22:00;100135.09;;;4.17;100.00
14295;BME280;7231;59.370;18.016;2024-02-21T10:24:30;100104.06;;;4.00;100.00
14295;BME280;7231;59.370;18.016;2024-02-21T10:27:01;100143.06;;;4.22;100.00
14295;BME280;7231;59.370;18.016;2024-02-21T10:29:30;100138.81;;;4.24;100.00
14295;BME280;7231;59.370;18.016;2024-02-21T10:32:07;100100.59;;;3.99;100.00
14295;BME280;7231;59.370;18.016;2024-02-21T10:34:37;100130.97;;;4.22;100.00
14295;BME280;7231;59.370;18.016;2024-02-21T10:37:07;100133.00;;;4.30;100.00
14295;BME280;7231;59.370;18.016;2024-02-21T10:39:37;100112.00;;;4.23;100.00
14295;BME280;7231;59.370;18.016;2024-02-21T10:42:06;100138.44;;;4.36;100.00
14295;BME280;7231;59.370;18.016;2024-02-21T10:44:37;100051.88;;;3.92;100.00
14295;BME280;7231;59.370;18.016;2024-02-21T10:47:09;100135.16;;;4.40;100.00
14295;BME280;7231;59.370;18.016;2024-02-21T10:49:39;100131.78;;;4.42;100.00
14295;BME280;7231;59.370;18.016;2024-02-21T10:52:14;100107.19;;;4.33;100.00
14295;BME280;7231;59.370;18.016;2024-02-21T10:54:45;100119.06;;;4.48;100.00
14295;BME280;7231;59.370;18.016;2024-02-21T10:57:14;100113.56;;;4.41;100.00
14295;BME280;7231;59.370;18.016;2024-02-21T10:59:44;100112.81;;;4.43;100.00
14295;BME280;7231;59.370;18.016;2024-02-21T11:02:14;100118.06;;;4.45;100.00
14295;BME280;7231;59.370;18.016;2024-02-21T11:04:43;100095.97;;;4.34;100.00
14295;BME280;7231;59.370;18.016;2024-02-21T11:07:13;100093.63;;;4.40;100.00
14295;BME280;7231;59.370;18.016;2024-02-21T11:09:50;100106.84;;;4.46;100.00
14295;BME280;7231;59.370;18.016;2024-02-21T11:12:20;100101.66;;;4.46;100.00
14295;BME280;7231;59.370;18.016;2024-02-21T11:14:49;100092.69;;;4.38;100.00
14295;BME280;7231;59.370;18.016;2024-02-21T11:17:20;100106.78;;;4.44;100.00
14295;BME280;7231;59.370;18.016;2024-02-21T11:19:52;100092.75;;;4.39;100.00
14295;BME280;7231;59.370;18.016;2024-02-21T11:22:21;100093.38;;;4.34;100.00
14295;BME280;7231;59.370;18.016;2024-02-21T11:24:51;100093.50;;;4.37;100.00
14295;BME280;7231;59.370;18.016;2024-02-21T11:27:21;100098.06;;;4.42;100.00
14295;BME280;7231;59.370;18.016;2024-02-21T11:29:55;100095.28;;;4.38;100.00
14295;BME280;7231;59.370;18.016;2024-02-21T11:32:26;100097.88;;;4.38;100.00
14295;BME280;7231;59.370;18.016;2024-02-21T11:34:55;100093.75;;;4.43;100.00
14295;BME280;7231;59.370;18.016;2024-02-21T11:37:25;100090.44;;;4.47;100.00
14295;BME280;7231;59.370;18.016;2024-02-21T11:39:54;100042.00;;;4.25;100.00
14295;BME280;7231;59.370;18.016;2024-02-21T11:42:24;100082.84;;;4.51;100.00
14295;BME280;7231;59.370;18.016;2024-02-21T11:44:53;100077.53;;;4.48;100.00
14295;BME280;7231;59.370;18.016;2024-02-21T11:47:25;100089.88;;;4.54;100.00
14295;BME280;7231;59.370;18.016;2024-02-21T11:49:54;100085.75;;;4.59;100.00
14295;BME280;7231;59.370;18.016;2024-02-21T11:52:23;100078.09;;;4.62;100.00
14295;BME280;7231;59.370;18.016;2024-02-21T11:54:53;100078.09;;;4.62;100.00
14295;BME280;7231;59.370;18.016;2024-02-21T11:57:24;100060.38;;;4.52;100.00
14295;BME280;7231;59.370;18.016;2024-02-21T11:59:53;100070.41;;;4.65;100.00
14295;BME280;7231;59.370;18.016;2024-02-21T12:02:27;100081.88;;;4.70;100.00
14295;BME280;7231;59.370;18.016;2024-02-21T12:04:55;100074.06;;;4.70;100.00
14295;BME280;7231;59.370;18.016;2024-02-21T12:07:24;100076.72;;;4.72;100.00
14295;BME280;7231;59.370;18.016;2024-02-21T12:09:58;100081.94;;;4.72;100.00
14295;BME280;7231;59.370;18.016;2024-02-21T12:12:27;100042.13;;;4.50;100.00
14295;BME280;7231;59.370;18.016;2024-02-21T12:14:56;100048.34;;;4.54;100.00
14295;BME280;7231;59.370;18.016;2024-02-21T12:17:26;100073.25;;;4.71;100.00
14295;BME280;7231;59.370;18.016;2024-02-21T12:19:54;100059.31;;;4.69;100.00
14295;BME280;7231;59.370;18.016;2024-02-21T12:22:22;100061.56;;;4.82;100.00
14295;BME280;7231;59.370;18.016;2024-02-21T12:24:52;100058.13;;;4.83;100.00
14295;BME280;7231;59.370;18.016;2024-02-21T12:27:21;100057.03;;;4.77;100.00
14295;BME280;7231;59.370;18.016;2024-02-21T12:29:50;100070.94;;;4.79;100.00
14295;BME280;7231;59.370;18.016;2024-02-21T12:32:18;100068.75;;;4.67;100.00
14295;BME280;7231;59.370;18.016;2024-02-21T12:34:48;100074.00;;;4.69;100.00
14295;BME280;7231;59.370;18.016;2024-02-21T12:37:22;100064.63;;;4.72;100.00
14295;BME280;7231;59.370;18.016;2024-02-21T12:39:50;100068.16;;;4.74;100.00
14295;BME280;7231;59.370;18.016;2024-02-21T12:42:18;100062.97;;;4.74;100.00
14295;BME280;7231;59.370;18.016;2024-02-21T12:44:46;100057.78;;;4.74;100.00
14295;BME280;7231;59.370;18.016;2024-02-21T12:47:14;100067.53;;;4.80;100.00
14295;BME280;7231;59.370;18.016;2024-02-21T12:49:43;100063.28;;;4.82;100.00
14295;BME280;7231;59.370;18.016;2024-02-21T12:52:13;100061.69;;;4.85;100.00
14295;BME280;7231;59.370;18.016;2024-02-21T12:54:42;100065.88;;;4.82;100.00
14295;BME280;7231;59.370;18.016;2024-02-21T12:57:10;100056.38;;;4.82;100.00
14295;BME280;7231;59.370;18.016;2024-02-21T12:59:38;100060.69;;;4.82;100.00